Time;durP1;ratioP1;P1;durP2;ratioP2;P2;SDS_P1;SDS_P2;PMS_P1;PMS_P2;Temp;Humidity;BMP_temperature;BMP_pressure;BME280_temperature;BME280_humidity;BME280_pressure;Samples;Min_cycle;Max_cycle;Signal;HPM_P1;HPM_P2
2023/08/10 07:28:14;;;;;;;5.85;3.25;;;;;;;15.90;100.00;97797.19;4973716;28;20487;-59
2023/08/10 07:30:44;;;;;;;4.40;2.67;;;;;;;16.01;100.00;97792.56;4967910;28;20050;-57
2023/08/10 07:33:11;;;;;;;6.32;3.45;;;;;;;16.19;100.00;97784.84;5008694;28;20043;-57
2023/08/10 07:35:38;;;;;;;7.95;3.10;;;;;;;16.32;100.00;97788.88;5014344;28;20073;-57
2023/08/10 07:38:04;;;;;;;5.63;2.95;;;;;;;16.45;100.00;97784.75;5002224;28;20038;-58
2023/08/10 07:40:31;;;;;;;4.40;3.00;;;;;;;16.61;100.00;97785.47;5038800;28;20072;-59
2023/08/10 07:42:58;;;;;;;4.55;2.90;;;;;;;16.68;100.00;97786.00;5017328;28;20519;-62
2023/08/10 07:45:24;;;;;;;5.22;3.30;;;;;;;16.68;100.00;97788.72;5003457;28;20051;-62
2023/08/10 07:47:51;;;;;;;5.85;3.30;;;;;;;16.73;100.00;97799.63;4973122;28;20043;-56
2023/08/10 07:50:17;;;;;;;6.32;3.30;;;;;;;16.90;100.00;97799.28;4997006;28;21143;-58
2023/08/10 07:52:44;;;;;;;5.25;3.13;;;;;;;16.99;100.00;97795.94;4987598;28;20047;-54
2023/08/10 07:55:13;;;;;;;4.32;2.60;;;;;;;17.10;100.00;97800.25;5007898;28;20093;-56
2023/08/10 07:57:39;;;;;;;4.72;2.50;;;;;;;17.28;99.68;97795.19;4947718;28;20139;-56
2023/08/10 08:00:07;;;;;;;5.95;3.13;;;;;;;17.37;97.52;97788.03;4971905;28;20147;-56
2023/08/10 08:02:40;;;;;;;7.90;3.30;;;;;;;17.41;100.00;97791.81;5016977;28;20045;-56
2023/08/10 08:05:07;;;;;;;6.30;3.20;;;;;;;17.35;99.94;97795.69;5029519;28;20092;-56
2023/08/10 08:07:34;;;;;;;6.15;3.05;;;;;;;17.42;100.00;97798.94;5029326;28;20039;-55
2023/08/10 08:10:00;;;;;;;8.15;3.05;;;;;;;17.39;100.00;97795.91;5013940;28;20042;-55
2023/08/10 08:12:27;;;;;;;4.93;2.65;;;;;;;17.39;99.99;97799.50;5010013;28;20066;-56
2023/08/10 08:14:54;;;;;;;5.50;3.25;;;;;;;17.39;100.00;97804.97;5024042;28;20050;-56
2023/08/10 08:17:22;;;;;;;5.38;2.60;;;;;;;17.41;98.90;97794.56;4983009;28;20300;-58
2023/08/10 08:19:55;;;;;;;4.30;2.55;;;;;;;17.54;99.56;97792.25;4987751;28;20108;-59
2023/08/10 08:22:25;;;;;;;4.20;2.40;;;;;;;17.74;98.46;97788.50;5015953;28;20514;-58
2023/08/10 08:24:52;;;;;;;5.13;2.35;;;;;;;17.83;98.28;97788.69;5008102;28;20507;-58
2023/08/10 08:27:19;;;;;;;5.38;2.47;;;;;;;17.80;96.37;97784.59;5035576;28;20032;-58
2023/08/10 08:29:45;;;;;;;4.70;1.90;;;;;;;17.80;98.00;97781.06;5030516;28;20039;-59
2023/08/10 08:32:12;;;;;;;5.63;3.40;;;;;;;17.96;97.17;97783.63;5016662;28;20525;-58
2023/08/10 08:34:57;;;;;;;3.78;2.22;;;;;;;17.73;95.76;97775.09;4996356;28;20140;-58
2023/08/10 08:37:23;;;;;;;4.95;2.25;;;;;;;17.84;95.58;97781.28;4984767;28;20073;-59
2023/08/10 08:39:50;;;;;;;6.25;2.35;;;;;;;17.91;96.74;97785.31;4937643;28;20048;-59
2023/08/10 08:42:16;;;;;;;4.53;2.30;;;;;;;18.01;96.91;97786.31;5029014;28;20052;-58
2023/08/10 08:44:43;;;;;;;5.95;2.50;;;;;;;17.97;93.92;97785.25;5009414;28;20041;-57
2023/08/10 08:47:09;;;;;;;4.50;2.50;;;;;;;18.11;93.25;97777.19;4989620;28;20090;-57
2023/08/10 08:49:37;;;;;;;3.90;2.38;;;;;;;18.15;92.29;97776.31;4993921;28;20421;-59
2023/08/10 08:52:04;;;;;;;5.45;2.53;;;;;;;18.28;89.23;97777.53;4995020;28;20057;-59
2023/08/10 08:54:32;;;;;;;14.15;3.55;;;;;;;18.29;88.06;97776.44;4998512;28;20055;-58
2023/08/10 08:56:59;;;;;;;6.80;2.40;;;;;;;18.32;88.08;97777.78;5025830;28;20117;-58
2023/08/10 08:59:26;;;;;;;5.22;2.50;;;;;;;18.36;89.83;97769.78;4980039;28;20600;-59
2023/08/10 09:01:53;;;;;;;4.43;2.38;;;;;;;18.52;90.43;97773.13;4991379;28;20039;-58
2023/08/10 09:04:27;;;;;;;3.88;2.30;;;;;;;18.57;89.92;97773.06;4981426;28;20047;-55
2023/08/10 09:06:53;;;;;;;3.42;1.92;;;;;;;18.71;90.68;97767.66;4980179;28;20049;-57
2023/08/10 09:09:20;;;;;;;5.25;2.30;;;;;;;18.84;89.43;97766.13;4984914;28;20042;-54
2023/08/10 09:11:47;;;;;;;3.72;2.15;;;;;;;19.02;89.01;97763.66;4993868;28;20517;-55
2023/08/10 09:14:13;;;;;;;5.93;2.25;;;;;;;19.14;87.77;97765.97;4979459;28;20042;-57
2023/08/10 09:16:43;;;;;;;3.10;1.95;;;;;;;19.17;84.05;97766.19;4994543;28;20046;-56
2023/08/10 09:19:12;;;;;;;3.42;2.17;;;;;;;19.31;84.68;97766.22;4985674;28;20067;-59
2023/08/10 09:21:39;;;;;;;4.55;2.42;;;;;;;19.46;82.85;97761.63;5002639;28;20044;-58
2023/08/10 09:24:09;;;;;;;4.05;2.35;;;;;;;19.70;83.08;97763.38;4997728;28;20118;-60
2023/08/10 09:26:38;;;;;;;7.28;2.60;;;;;;;19.76;81.71;97764.94;5005996;28;20040;-60
2023/08/10 09:29:05;;;;;;;4.32;2.15;;;;;;;19.93;81.17;97758.03;5015777;28;20074;-60
2023/08/10 09:31:31;;;;;;;4.07;2.35;;;;;;;19.93;78.61;97752.53;5012316;28;20045;-60
2023/08/10 09:33:59;;;;;;;3.92;2.40;;;;;;;19.94;77.61;97754.16;5009471;28;20047;-59
2023/08/10 09:36:28;;;;;;;3.05;1.88;;;;;;;20.08;78.36;97751.44;5018154;28;21433;-60
2023/08/10 09:38:55;;;;;;;5.88;2.38;;;;;;;20.00;77.93;97747.47;5010200;28;20046;-59
2023/08/10 09:41:27;;;;;;;9.10;2.30;;;;;;;19.84;78.01;97752.41;5011884;28;20490;-59
2023/08/10 09:43:54;;;;;;;4.55;2.45;;;;;;;19.93;78.46;97747.84;5003727;28;20037;-59
2023/08/10 09:46:20;;;;;;;4.32;2.30;;;;;;;20.27;79.38;97745.84;4982422;28;20139;-59
2023/08/10 09:48:52;;;;;;;6.00;2.20;;;;;;;20.44;77.92;97741.63;4947448;28;20058;-55
2023/08/10 09:51:18;;;;;;;3.58;2.00;;;;;;;20.57;76.88;97731.72;4998819;28;20055;-59
2023/08/10 09:53:45;;;;;;;4.40;2.30;;;;;;;20.81;78.16;97739.72;5002483;28;20222;-58
2023/08/10 09:56:12;;;;;;;7.70;2.33;;;;;;;20.82;76.42;97737.78;4989093;28;20150;-58
2023/08/10 09:58:40;;;;;;;4.03;2.20;;;;;;;20.58;75.12;97731.44;4960388;28;20057;-57
2023/08/10 10:01:09;;;;;;;3.85;2.20;;;;;;;20.63;75.76;97724.97;4956280;28;20052;-58
2023/08/10 10:03:43;;;;;;;4.55;2.30;;;;;;;20.58;74.36;97728.66;4999345;28;20664;-55
2023/08/10 10:06:10;;;;;;;5.88;2.65;;;;;;;20.75;74.70;97735.47;5009418;28;20119;-59
2023/08/10 10:08:38;;;;;;;4.68;2.40;;;;;;;20.76;73.42;97735.16;4990132;28;20520;-59
2023/08/10 10:11:13;;;;;;;4.80;2.10;;;;;;;20.97;72.76;97731.13;4925394;28;20583;-59
2023/08/10 10:13:41;;;;;;;3.70;1.98;;;;;;;21.06;71.59;97729.25;4966575;28;20036;-60
2023/08/10 10:16:08;;;;;;;4.68;2.20;;;;;;;21.25;70.22;97722.72;5005999;28;20042;-59
2023/08/10 10:18:35;;;;;;;4.80;2.40;;;;;;;21.18;68.63;97721.25;4995990;28;20043;-60
2023/08/10 10:21:02;;;;;;;4.07;2.45;;;;;;;21.10;69.76;97726.69;5005231;28;20086;-59
2023/08/10 10:23:30;;;;;;;5.78;2.50;;;;;;;21.04;70.32;97717.72;4994075;28;20047;-60
2023/08/10 10:25:58;;;;;;;3.72;2.10;;;;;;;21.11;70.21;97718.09;5025120;28;20036;-59
2023/08/10 10:28:28;;;;;;;3.53;1.83;;;;;;;21.23;71.14;97720.28;4989645;28;20039;-60
2023/08/10 10:31:05;;;;;;;5.40;2.00;;;;;;;21.46;68.06;97714.78;4989373;28;20117;-60
2023/08/10 10:33:33;;;;;;;6.28;2.30;;;;;;;21.53;64.79;97714.31;4985147;28;20053;-60
2023/08/10 10:36:09;;;;;;;4.20;2.42;;;;;;;21.17;67.09;97711.38;5005738;28;20124;-60
2023/08/10 10:38:54;;;;;;;4.75;2.20;;;;;;;21.11;68.25;97704.34;5006408;28;20096;-60
2023/08/10 10:41:31;;;;;;;4.63;1.98;;;;;;;21.20;68.14;97701.66;5024175;28;20053;-59
2023/08/10 10:43:59;;;;;;;3.47;2.00;;;;;;;21.27;68.04;97698.47;4992140;28;20054;-55
2023/08/10 10:46:32;;;;;;;3.47;2.28;;;;;;;21.40;68.08;97689.28;5011622;28;20118;-58
2023/08/10 10:49:18;;;;;;;3.55;2.20;;;;;;;21.41;66.15;97699.19;4997147;28;20086;-59
2023/08/10 10:51:51;;;;;;;5.32;1.90;;;;;;;21.46;65.56;97686.41;4983840;28;20050;-58
2023/08/10 10:54:17;;;;;;;5.97;1.80;;;;;;;21.39;64.41;97692.38;5029005;28;20612;-56
2023/08/10 10:56:44;;;;;;;3.25;1.75;;;;;;;21.24;65.04;97694.41;5015466;28;20054;-55
2023/08/10 10:59:12;;;;;;;3.88;2.10;;;;;;;21.17;67.39;97688.50;4978832;28;20044;-56
2023/08/10 11:01:39;;;;;;;3.10;1.63;;;;;;;21.01;67.43;97679.84;4985147;28;20043;-57
2023/08/10 11:04:07;;;;;;;5.22;2.40;;;;;;;21.12;66.58;97680.38;4978230;28;20054;-57
2023/08/10 11:06:37;;;;;;;5.00;1.98;;;;;;;21.28;64.88;97689.06;5009822;28;20042;-55
2023/08/10 11:09:07;;;;;;;7.65;2.35;;;;;;;21.47;65.33;97677.81;4999630;28;20040;-57
2023/08/10 11:11:35;;;;;;;6.15;1.88;;;;;;;21.56;65.18;97675.13;4952029;28;20045;-56
2023/08/10 11:14:02;;;;;;;3.90;2.10;;;;;;;21.65;64.67;97670.47;4960368;28;20041;-57
2023/08/10 11:16:40;;;;;;;5.15;2.00;;;;;;;21.74;62.91;97677.97;4988747;28;20072;-56
2023/08/10 11:19:09;;;;;;;5.35;2.00;;;;;;;21.73;64.00;97665.31;5015106;28;20056;-59
2023/08/10 11:21:43;;;;;;;3.67;2.30;;;;;;;21.86;64.79;97675.44;5009815;28;20045;-57
2023/08/10 11:24:09;;;;;;;5.00;2.20;;;;;;;21.95;64.21;97672.69;5004652;28;20063;-59
2023/08/10 11:26:36;;;;;;;3.38;1.90;;;;;;;22.01;63.30;97674.19;4999977;28;20130;-58
2023/08/10 11:29:03;;;;;;;3.53;1.85;;;;;;;22.06;62.44;97674.03;4961983;28;20113;-58
2023/08/10 11:31:39;;;;;;;3.83;2.00;;;;;;;21.92;62.60;97668.63;4961883;28;20058;-58
2023/08/10 11:34:23;;;;;;;4.00;2.17;;;;;;;21.97;62.32;97664.91;4996004;28;20040;-58
2023/08/10 11:36:51;;;;;;;3.35;1.88;;;;;;;22.09;61.67;97659.59;4986678;28;20066;-58
2023/08/10 11:39:20;;;;;;;5.15;2.20;;;;;;;22.25;61.41;97661.09;4970719;28;20040;-58
2023/08/10 11:41:46;;;;;;;3.75;1.80;;;;;;;22.32;60.38;97658.63;5012847;28;20103;-59
2023/08/10 11:44:23;;;;;;;3.85;1.83;;;;;;;22.27;60.07;97667.06;5007105;28;20091;-59
2023/08/10 11:46:50;;;;;;;5.13;2.13;;;;;;;22.11;59.65;97656.50;5004189;28;20072;-60
2023/08/10 11:49:17;;;;;;;6.13;2.10;;;;;;;22.18;60.71;97659.59;4995655;28;20044;-58
2023/08/10 11:51:43;;;;;;;4.70;2.45;;;;;;;22.22;60.82;97660.56;4981475;28;20510;-59
2023/08/10 11:54:10;;;;;;;4.40;2.42;;;;;;;22.32;60.86;97656.69;4968680;28;20467;-59
2023/08/10 11:56:46;;;;;;;5.50;2.10;;;;;;;22.29;59.66;97656.56;4976026;28;20059;-60
2023/08/10 11:59:14;;;;;;;4.47;1.88;;;;;;;22.55;60.41;97661.31;4983151;28;20041;-59
2023/08/10 12:01:45;;;;;;;3.22;1.90;;;;;;;22.68;58.42;97659.50;4994746;28;20039;-60
2023/08/10 12:04:12;;;;;;;;;;;;;;;22.76;58.10;97657.84;4976456;28;20046;-60
2023/08/10 12:06:40;;;;;;;3.85;1.90;;;;;;;22.88;58.22;97660.78;5000557;28;19995;-59
2023/08/10 12:09:10;;;;;;;4.15;2.00;;;;;;;23.14;57.39;97662.69;4968783;28;20040;-57
2023/08/10 12:11:40;;;;;;;5.13;2.03;;;;;;;23.17;57.07;97664.78;4976230;28;20050;-59
2023/08/10 12:14:08;;;;;;;4.78;2.28;;;;;;;23.12;55.97;97662.22;4984228;28;20050;-57
2023/08/10 12:16:35;;;;;;;5.15;2.03;;;;;;;23.10;56.02;97668.06;4987756;28;20043;-59
2023/08/10 12:19:02;;;;;;;4.35;2.05;;;;;;;22.96;57.12;97661.91;4973089;28;20049;-61
2023/08/10 12:21:28;;;;;;;6.70;2.17;;;;;;;23.10;57.02;97665.28;4997071;28;20050;-60
2023/08/10 12:23:55;;;;;;;4.82;2.13;;;;;;;23.27;55.98;97663.63;4997938;28;20040;-60
2023/08/10 12:26:23;;;;;;;8.20;2.42;;;;;;;23.43;54.97;97666.69;4988087;28;20058;-60
2023/08/10 12:28:49;;;;;;;4.88;2.17;;;;;;;23.40;53.93;97672.88;4997321;28;20496;-60
2023/08/10 12:31:16;;;;;;;4.85;2.08;;;;;;;23.56;53.48;97662.13;4989493;28;20541;-60
2023/08/10 12:33:43;;;;;;;4.60;2.38;;;;;;;23.44;54.94;97665.56;4990678;28;20392;-60
2023/08/10 12:36:10;;;;;;;3.97;2.03;;;;;;;23.47;53.95;97667.66;5029930;28;20075;-59
2023/08/10 12:38:36;;;;;;;4.10;2.22;;;;;;;23.60;53.08;97665.03;4991141;28;20048;-59
2023/08/10 12:41:05;;;;;;;5.60;1.83;;;;;;;23.83;52.44;97662.81;4989518;28;20061;-59
2023/08/10 12:43:31;;;;;;;3.00;1.90;;;;;;;24.14;52.56;97666.41;4985981;28;20054;-59
2023/08/10 12:45:58;;;;;;;3.65;1.75;;;;;;;24.42;51.94;97661.16;4971871;28;20050;-59
2023/08/10 12:48:24;;;;;;;3.97;1.90;;;;;;;24.27;51.07;97670.88;4999497;28;20038;-59
2023/08/10 12:50:51;;;;;;;4.90;2.38;;;;;;;24.32;51.69;97660.75;5005747;28;20117;-59
2023/08/10 12:53:18;;;;;;;4.13;2.10;;;;;;;24.23;51.21;97664.41;4988378;28;20050;-56
2023/08/10 12:55:44;;;;;;;3.10;1.70;;;;;;;24.41;51.48;97670.63;4986893;28;20048;-59
2023/08/10 12:58:14;;;;;;;3.50;1.92;;;;;;;24.50;52.50;97665.00;4994956;28;20035;-59
2023/08/10 13:00:41;;;;;;;3.42;2.03;;;;;;;24.83;51.53;97662.66;4987390;28;20039;-61
2023/08/10 13:03:08;;;;;;;6.75;3.45;;;;;;;25.13;50.91;97671.66;5007086;28;20529;-56
2023/08/10 13:05:34;;;;;;;4.30;1.88;;;;;;;25.56;50.30;97657.66;5022321;28;20721;-56
2023/08/10 13:08:02;;;;;;;4.78;1.80;;;;;;;25.83;48.48;97666.47;5006205;28;20070;-63
2023/08/10 13:10:28;;;;;;;3.72;1.90;;;;;;;25.69;47.78;97662.06;4991883;28;20050;-60
2023/08/10 13:12:55;;;;;;;3.42;1.80;;;;;;;26.11;47.02;97668.56;5016533;28;20051;-58
2023/08/10 13:15:21;;;;;;;5.50;2.05;;;;;;;26.81;46.35;97666.69;4983567;28;20234;-60
2023/08/10 13:17:48;;;;;;;2.95;1.48;;;;;;;27.37;44.23;97659.47;5003367;28;20044;-60
2023/08/10 13:20:15;;;;;;;3.00;1.90;;;;;;;27.76;43.43;97666.44;5018983;28;20051;-59
2023/08/10 13:22:44;;;;;;;4.90;1.83;;;;;;;28.29;42.93;97663.31;5001005;28;20118;-63
2023/08/10 13:25:10;;;;;;;5.57;1.73;;;;;;;28.42;41.79;97657.63;5003154;28;20100;-61
2023/08/10 13:27:37;;;;;;;4.20;2.25;;;;;;;28.82;41.41;97662.03;5012735;28;20036;-60
2023/08/10 13:30:04;;;;;;;3.33;1.90;;;;;;;29.17;39.99;97667.91;4995852;28;20042;-60
2023/08/10 13:32:31;;;;;;;3.10;1.55;;;;;;;29.50;39.13;97665.69;5026444;28;20072;-60
2023/08/10 13:34:57;;;;;;;3.70;1.70;;;;;;;29.01;39.38;97660.47;5007875;28;20041;-58
2023/08/10 13:37:24;;;;;;;4.00;1.50;;;;;;;29.29;38.87;97651.00;5018051;28;20457;-60
2023/08/10 13:39:50;;;;;;;3.63;2.10;;;;;;;29.59;38.28;97650.34;4993389;28;20044;-60
2023/08/10 13:42:17;;;;;;;4.18;2.00;;;;;;;29.64;37.78;97654.81;4993584;28;20127;-60
2023/08/10 13:44:43;;;;;;;3.67;1.80;;;;;;;29.62;38.64;97657.16;4963406;28;20050;-59
2023/08/10 13:47:10;;;;;;;5.38;2.25;;;;;;;30.22;38.09;97654.94;4989943;28;20054;-64
2023/08/10 13:49:36;;;;;;;2.90;1.52;;;;;;;30.32;37.68;97645.91;5009624;28;20392;-64
2023/08/10 13:52:24;;;;;;;3.58;1.85;;;;;;;30.56;36.86;97643.00;4993423;28;20160;-62
2023/08/10 13:54:51;;;;;;;3.83;1.73;;;;;;;30.04;37.53;97647.09;5009478;28;20037;-63
2023/08/10 13:57:17;;;;;;;4.03;1.83;;;;;;;30.31;37.54;97646.28;5002232;28;20044;-62
2023/08/10 13:59:46;;;;;;;6.15;2.00;;;;;;;29.88;37.60;97646.44;5002087;28;20040;-62
2023/08/10 14:02:13;;;;;;;3.90;2.00;;;;;;;30.00;37.29;97649.00;4999955;28;20067;-62
2023/08/10 14:04:39;;;;;;;3.17;1.50;;;;;;;30.45;36.32;97645.66;5012202;28;20042;-62
2023/08/10 14:07:06;;;;;;;2.75;1.58;;;;;;;30.07;37.31;97646.31;4988668;28;20043;-62
2023/08/10 14:09:33;;;;;;;2.95;1.63;;;;;;;29.92;37.17;97642.50;5013418;28;20043;-59
2023/08/10 14:11:59;;;;;;;3.97;1.70;;;;;;;30.24;36.44;97645.00;4950348;28;20050;-59
2023/08/10 14:14:26;;;;;;;4.38;1.80;;;;;;;30.79;34.74;97647.69;4968279;28;20054;-60
2023/08/10 14:16:53;;;;;;;3.15;1.70;;;;;;;30.02;36.13;97643.03;5013197;28;20045;-60
2023/08/10 14:19:22;;;;;;;4.20;1.70;;;;;;;30.51;34.23;97644.13;4997041;28;20116;-59
2023/08/10 14:21:49;;;;;;;2.90;1.60;;;;;;;30.30;35.61;97639.09;4997893;28;20129;-60
2023/08/10 14:24:15;;;;;;;5.47;1.58;;;;;;;29.33;36.07;97639.91;5005225;28;20115;-59
2023/08/10 14:26:42;;;;;;;3.00;1.60;;;;;;;29.16;36.51;97632.84;5001124;28;20119;-60
2023/08/10 14:29:09;;;;;;;4.75;1.83;;;;;;;29.31;36.76;97628.31;5004838;28;20041;-60
2023/08/10 14:31:36;;;;;;;4.03;1.55;;;;;;;29.99;34.97;97630.63;5011660;28;20060;-60
2023/08/10 14:34:03;;;;;;;4.07;1.80;;;;;;;29.83;35.17;97628.00;5002809;28;20043;-61
2023/08/10 14:36:30;;;;;;;3.28;1.50;;;;;;;29.93;35.05;97635.75;5014152;28;20077;-61
2023/08/10 14:38:56;;;;;;;3.25;1.67;;;;;;;30.41;34.02;97628.88;5013135;28;20044;-61
2023/08/10 14:41:23;;;;;;;3.28;1.63;;;;;;;30.13;33.51;97630.06;5005672;28;20055;-59
2023/08/10 14:43:49;;;;;;;4.10;1.70;;;;;;;29.88;34.55;97618.53;5011347;28;20047;-60
2023/08/10 14:46:16;;;;;;;3.13;1.50;;;;;;;30.27;34.22;97623.06;5000795;28;20116;-59
2023/08/10 14:48:43;;;;;;;3.25;1.50;;;;;;;30.21;33.28;97628.19;4939551;28;20121;-60
2023/08/10 14:51:10;;;;;;;3.60;1.73;;;;;;;30.49;32.83;97624.16;5006787;28;20628;-59
2023/08/10 14:53:37;;;;;;;3.72;1.63;;;;;;;30.67;32.78;97624.41;4991841;28;20057;-59
2023/08/10 14:56:04;;;;;;;3.25;1.70;;;;;;;31.26;31.86;97621.06;4978348;28;20050;-59
2023/08/10 14:58:30;;;;;;;2.65;1.52;;;;;;;30.75;32.78;97626.13;5010580;28;20050;-60
2023/08/10 15:00:57;;;;;;;4.05;1.70;;;;;;;30.12;33.18;97620.06;4978416;28;20046;-60
2023/08/10 15:03:24;;;;;;;3.20;1.77;;;;;;;30.50;32.96;97628.56;4928711;28;20046;-60
2023/08/10 15:05:50;;;;;;;4.53;2.08;;;;;;;31.09;31.88;97613.28;4928704;28;20584;-60
2023/08/10 15:08:17;;;;;;;3.00;1.45;;;;;;;31.37;31.68;97623.19;4931564;28;20117;-58
2023/08/10 15:10:44;;;;;;;2.90;1.75;;;;;;;31.30;32.06;97626.69;4932140;28;21779;-59
2023/08/10 15:13:10;;;;;;;3.25;1.70;;;;;;;31.10;31.32;97614.91;4928375;28;20047;-61
2023/08/10 15:15:37;;;;;;;3.97;1.15;;;;;;;31.58;31.27;97619.75;4932782;28;20034;-60
2023/08/10 15:18:04;;;;;;;2.80;1.70;;;;;;;31.16;32.00;97613.38;4936720;28;20131;-60
2023/08/10 15:20:31;;;;;;;3.50;1.40;;;;;;;31.00;32.02;97613.59;5013495;28;20063;-60
2023/08/10 15:22:57;;;;;;;3.58;1.50;;;;;;;31.92;30.71;97618.84;5006307;28;20636;-58
2023/08/10 15:25:35;;;;;;;2.55;1.40;;;;;;;32.03;30.74;97622.50;5003443;28;20683;-60
2023/08/10 15:28:02;;;;;;;2.67;1.42;;;;;;;31.98;30.01;97611.66;5005567;28;20066;-60
2023/08/10 15:30:29;;;;;;;4.15;1.40;;;;;;;31.41;31.38;97612.81;5004546;28;20106;-59
2023/08/10 15:32:56;;;;;;;4.00;1.67;;;;;;;31.31;30.05;97617.13;4982771;28;20033;-59
2023/08/10 15:35:23;;;;;;;2.90;1.40;;;;;;;30.78;30.98;97618.16;5023334;28;20090;-60
2023/08/10 15:37:49;;;;;;;4.65;1.45;;;;;;;31.16;31.03;97613.38;5009212;28;20059;-57
2023/08/10 15:40:16;;;;;;;4.28;1.77;;;;;;;31.60;30.93;97611.78;4997216;28;20119;-56
2023/08/10 15:42:43;;;;;;;6.38;1.63;;;;;;;30.92;30.86;97611.91;5002253;28;20034;-56
2023/08/10 15:45:10;;;;;;;4.28;1.77;;;;;;;30.70;31.34;97620.81;4991395;28;20073;-57
2023/08/10 15:47:36;;;;;;;2.88;1.98;;;;;;;30.28;32.13;97610.75;4978114;28;20406;-55
2023/08/10 15:50:06;;;;;;;8.40;1.83;;;;;;;31.21;30.96;97609.41;5003005;28;20039;-59
2023/08/10 15:52:33;;;;;;;3.17;1.40;;;;;;;32.13;29.78;97615.38;4983872;28;20036;-61
2023/08/10 15:54:59;;;;;;;3.80;1.40;;;;;;;31.62;30.21;97614.19;4973295;28;20489;-62
2023/08/10 15:57:26;;;;;;;2.83;1.50;;;;;;;32.15;29.90;97612.19;4988724;28;20032;-60
2023/08/10 15:59:53;;;;;;;3.65;1.80;;;;;;;31.94;30.20;97613.66;4977592;28;20492;-61
2023/08/10 16:02:20;;;;;;;2.72;1.50;;;;;;;31.86;30.40;97621.16;4996491;28;20055;-59
2023/08/10 16:04:47;;;;;;;2.80;1.40;;;;;;;32.00;29.34;97617.69;5005915;28;20058;-61
2023/08/10 16:07:13;;;;;;;3.13;1.42;;;;;;;31.80;29.54;97609.53;4994566;28;20390;-59
2023/08/10 16:09:40;;;;;;;3.92;1.60;;;;;;;31.64;30.39;97607.03;4984020;28;20054;-60
2023/08/10 16:12:06;;;;;;;4.05;1.52;;;;;;;32.26;28.86;97615.03;4977682;28;20644;-61
2023/08/10 16:14:34;;;;;;;3.13;1.80;;;;;;;31.18;30.90;97615.78;5003499;28;20047;-61
2023/08/10 16:17:01;;;;;;;3.75;1.55;;;;;;;31.16;31.02;97610.56;4982078;28;20132;-58
2023/08/10 16:19:27;;;;;;;2.60;1.40;;;;;;;31.47;30.90;97613.28;4994074;28;20066;-58
2023/08/10 16:21:54;;;;;;;3.25;1.50;;;;;;;31.67;30.60;97614.66;4970069;28;20049;-57
2023/08/10 16:24:20;;;;;;;3.33;1.48;;;;;;;31.23;30.55;97607.03;4973490;28;20046;-63
2023/08/10 16:26:47;;;;;;;3.67;1.48;;;;;;;29.77;32.91;97604.41;4998020;28;20560;-58
2023/08/10 16:29:13;;;;;;;3.72;1.75;;;;;;;28.63;34.99;97606.34;4990086;28;20047;-54
2023/08/10 16:31:40;;;;;;;2.28;1.33;;;;;;;28.65;35.25;97599.22;4992662;28;20175;-63
2023/08/10 16:34:07;;;;;;;2.88;1.60;;;;;;;27.58;36.82;97608.38;4987653;28;20050;-62
2023/08/10 16:36:34;;;;;;;3.58;1.60;;;;;;;27.56;37.02;97607.91;4970126;28;20092;-62
2023/08/10 16:39:01;;;;;;;3.00;1.55;;;;;;;27.42;37.69;97610.34;4999320;28;20741;-59
2023/08/10 16:41:28;;;;;;;5.80;1.77;;;;;;;27.02;38.53;97615.69;4990426;28;20059;-56
2023/08/10 16:43:54;;;;;;;4.63;1.45;;;;;;;26.53;39.44;97602.81;4972305;28;20070;-59
2023/08/10 16:46:22;;;;;;;3.97;1.60;;;;;;;26.21;40.01;97618.13;4963635;28;20039;-59
2023/08/10 16:48:48;;;;;;;2.78;1.40;;;;;;;26.33;40.23;97608.19;4977669;28;20108;-59
2023/08/10 16:51:15;;;;;;;2.10;1.38;;;;;;;26.11;41.11;97610.28;4968936;28;20080;-61
2023/08/10 16:53:42;;;;;;;5.68;1.55;;;;;;;26.28;41.98;97605.66;4984556;28;20068;-58
2023/08/10 16:56:09;;;;;;;6.15;1.63;;;;;;;26.27;41.53;97609.59;4966527;28;20034;-56
2023/08/10 16:58:35;;;;;;;2.80;1.67;;;;;;;25.97;41.83;97613.41;4969438;28;20055;-59
2023/08/10 17:01:02;;;;;;;3.70;2.22;;;;;;;25.97;42.21;97607.88;4988697;28;20121;-59
2023/08/10 17:03:30;;;;;;;4.65;1.73;;;;;;;26.03;41.41;97609.28;4977315;28;20049;-60
2023/08/10 17:05:57;;;;;;;3.35;1.85;;;;;;;25.93;41.50;97616.09;4955163;28;20051;-60
2023/08/10 17:08:23;;;;;;;2.53;1.40;;;;;;;25.55;41.87;97611.69;4929871;28;20066;-60
2023/08/10 17:10:50;;;;;;;3.30;1.80;;;;;;;25.21;42.65;97606.22;4958414;28;20058;-59
2023/08/10 17:13:17;;;;;;;3.28;1.77;;;;;;;25.03;43.66;97600.88;4980337;28;20047;-60
2023/08/10 17:15:43;;;;;;;3.13;1.60;;;;;;;24.83;43.71;97612.81;4972441;28;20562;-60
2023/08/10 17:18:10;;;;;;;3.50;1.80;;;;;;;24.75;43.59;97606.19;4987077;28;20051;-59
2023/08/10 17:20:36;;;;;;;3.15;1.50;;;;;;;24.76;43.57;97605.84;4972954;28;20100;-59
2023/08/10 17:23:04;;;;;;;3.58;1.95;;;;;;;24.79;43.68;97609.88;4978454;28;20036;-59
2023/08/10 17:25:30;;;;;;;3.47;1.67;;;;;;;24.70;43.66;97603.63;4965783;28;20054;-59
2023/08/10 17:27:57;;;;;;;5.28;1.73;;;;;;;24.43;44.47;97606.63;4982430;28;20489;-59
2023/08/10 17:30:23;;;;;;;3.00;1.70;;;;;;;24.37;44.29;97614.34;4968491;28;20395;-59
2023/08/10 17:32:50;;;;;;;3.40;1.60;;;;;;;24.39;44.76;97611.22;4989464;28;20047;-59
2023/08/10 17:35:17;;;;;;;3.50;1.73;;;;;;;24.38;44.91;97604.88;4976422;28;20103;-59
2023/08/10 17:37:44;;;;;;;4.85;1.70;;;;;;;24.14;46.28;97606.34;4980340;28;20035;-59
2023/08/10 17:40:11;;;;;;;4.20;1.70;;;;;;;24.06;46.98;97612.72;4988540;28;20055;-60
2023/08/10 17:42:38;;;;;;;4.72;1.60;;;;;;;24.01;47.38;97608.22;4980587;28;20576;-59
2023/08/10 17:45:06;;;;;;;4.55;1.75;;;;;;;23.93;47.58;97611.03;4984677;28;20059;-59
2023/08/10 17:47:37;;;;;;;3.35;1.80;;;;;;;23.91;47.52;97616.88;4977826;28;20120;-59
2023/08/10 17:50:07;;;;;;;2.70;1.63;;;;;;;23.80;48.01;97621.19;4979228;28;20498;-59
2023/08/10 17:52:38;;;;;;;2.85;1.48;;;;;;;23.75;47.99;97614.72;4996405;28;20107;-60
2023/08/10 17:55:05;;;;;;;4.30;1.83;;;;;;;23.67;48.35;97615.56;4970032;28;20125;-60
2023/08/10 17:57:35;;;;;;;3.13;1.52;;;;;;;23.63;47.83;97620.94;4982666;28;20121;-59
2023/08/10 18:00:24;;;;;;;2.97;1.52;;;;;;;23.59;48.31;97621.94;4971708;28;20228;-59
2023/08/10 18:02:53;;;;;;;3.47;1.67;;;;;;;23.57;48.62;97632.50;4984706;28;20100;-60
2023/08/10 18:05:20;;;;;;;2.83;1.60;;;;;;;23.44;49.34;97634.38;4971332;28;20133;-60
2023/08/10 18:07:47;;;;;;;3.05;1.63;;;;;;;23.36;49.70;97642.34;4978623;28;20037;-60
2023/08/10 18:10:13;;;;;;;2.83;1.75;;;;;;;23.29;50.29;97635.69;4980067;28;20046;-60
2023/08/10 18:12:40;;;;;;;3.45;1.98;;;;;;;23.21;50.54;97635.38;4982724;28;20405;-60
2023/08/10 18:15:07;;;;;;;3.05;1.70;;;;;;;23.06;51.22;97631.19;4983903;28;20074;-60
2023/08/10 18:17:34;;;;;;;4.80;2.00;;;;;;;22.94;52.49;97640.16;4985344;28;20039;-60
2023/08/10 18:20:01;;;;;;;4.25;2.25;;;;;;;22.90;52.77;97638.38;4981280;28;20070;-59
2023/08/10 18:22:27;;;;;;;5.22;2.08;;;;;;;22.74;52.99;97639.69;4994488;28;20042;-60
2023/08/10 18:24:54;;;;;;;4.80;2.10;;;;;;;22.59;53.99;97635.47;4973919;28;20486;-60
2023/08/10 18:27:20;;;;;;;3.90;2.10;;;;;;;22.55;54.07;97637.25;4984085;28;20044;-58
2023/08/10 18:29:49;;;;;;;6.72;2.67;;;;;;;22.25;58.26;97639.81;4979793;28;20094;-59
2023/08/10 18:32:16;;;;;;;4.47;2.55;;;;;;;21.48;62.40;97631.81;4986748;28;20527;-59
2023/08/10 18:34:43;;;;;;;3.55;2.03;;;;;;;21.07;64.27;97640.03;4976940;28;20050;-59
2023/08/10 18:37:09;;;;;;;3.67;1.98;;;;;;;20.54;66.71;97639.66;4996139;28;20446;-59
2023/08/10 18:39:36;;;;;;;4.63;2.03;;;;;;;20.04;69.10;97646.78;4972387;28;20042;-59
2023/08/10 18:42:03;;;;;;;4.38;2.00;;;;;;;19.81;71.07;97648.63;4982875;28;20845;-60
2023/08/10 18:44:30;;;;;;;4.45;1.88;;;;;;;19.84;71.38;97645.25;4977674;28;20112;-59
2023/08/10 18:46:57;;;;;;;4.57;2.15;;;;;;;19.40;73.97;97648.31;4992397;28;20043;-59
2023/08/10 18:49:24;;;;;;;10.85;3.22;;;;;;;19.26;75.08;97651.03;4983607;28;20046;-59
2023/08/10 18:51:50;;;;;;;4.40;1.98;;;;;;;19.29;73.93;97639.44;4994652;28;20053;-60
2023/08/10 18:54:17;;;;;;;5.10;2.50;;;;;;;19.18;74.74;97655.28;4981330;28;20923;-59
2023/08/10 18:56:44;;;;;;;4.80;2.30;;;;;;;19.00;75.28;97653.38;4974034;28;20038;-59
2023/08/10 18:59:10;;;;;;;4.07;2.15;;;;;;;18.70;77.06;97654.41;4980951;28;20037;-59
2023/08/10 19:01:37;;;;;;;3.58;1.80;;;;;;;18.55;77.38;97663.69;4977057;28;20065;-59
2023/08/10 19:04:05;;;;;;;5.57;2.13;;;;;;;18.51;78.21;97667.31;4960502;28;20043;-59